createdAt,value
2019-04-25T00:00:51.325Z,1.50
2019-04-25T00:01:49.551Z,1.90
2019-04-25T00:02:50.945Z,1.70
2019-04-25T00:03:49.503Z,1.50
2019-04-25T00:04:49.479Z,1.50
2019-04-25T00:05:49.455Z,1.60
2019-04-25T00:06:49.430Z,1.70
2019-04-25T00:07:49.405Z,1.60
2019-04-25T00:08:49.381Z,1.80
2019-04-25T00:09:49.356Z,1.50
2019-04-25T00:10:49.336Z,1.40
2019-04-25T00:11:49.307Z,1.50
2019-04-25T00:12:49.293Z,1.50
2019-04-25T00:13:49.260Z,1.30
2019-04-25T00:14:49.233Z,1.40
2019-04-25T00:15:49.211Z,1.60
2019-04-25T00:16:49.294Z,1.50
2019-04-25T00:17:49.159Z,1.40
2019-04-25T00:18:49.335Z,1.40
2019-04-25T00:19:49.110Z,1.30
2019-04-25T00:20:49.086Z,1.40
2019-04-25T00:21:49.061Z,1.30
2019-04-25T00:22:49.269Z,1.40
2019-04-25T00:23:49.308Z,1.30
2019-04-25T00:24:49.467Z,1.40
2019-04-25T00:25:49.240Z,1.20
2019-04-25T00:26:48.938Z,1.30
2019-04-25T00:27:48.913Z,1.30
2019-04-25T00:28:48.892Z,1.40
2019-04-25T00:29:48.864Z,1.30
2019-04-25T00:30:48.840Z,1.30
2019-04-25T00:31:49.290Z,1.40
2019-04-25T00:32:49.301Z,1.30
2019-04-25T00:33:49.578Z,1.30
2019-04-25T00:34:48.740Z,1.50
2019-04-25T00:35:49.557Z,1.30
2019-04-25T00:36:48.732Z,1.30
2019-04-25T00:37:48.677Z,1.40
2019-04-25T00:38:49.260Z,1.50
2019-04-25T00:39:49.091Z,1.50
2019-04-25T00:40:48.594Z,1.40
2019-04-25T00:41:49.351Z,1.40
2019-04-25T00:42:48.543Z,1.40
2019-04-25T00:43:48.519Z,1.40
2019-04-25T00:44:48.495Z,1.50
2019-04-25T00:45:48.470Z,1.40
2019-04-25T00:46:50.039Z,1.40
2019-04-25T00:47:48.420Z,1.40
2019-04-25T00:48:48.395Z,1.50
2019-04-25T00:49:48.369Z,1.40
2019-04-25T00:50:48.345Z,1.20
2019-04-25T00:51:48.362Z,1.40
2019-04-25T00:52:48.356Z,1.40
2019-04-25T00:53:48.271Z,1.70
2019-04-25T00:54:48.364Z,1.40
2019-04-25T00:55:48.644Z,1.40
2019-04-25T00:56:49.339Z,1.70
2019-04-25T00:57:48.778Z,1.60
2019-04-25T00:58:48.892Z,1.40
2019-04-25T00:59:48.886Z,1.40
2019-04-25T01:00:49.005Z,1.40
2019-04-25T01:01:48.095Z,1.20
2019-04-25T01:02:48.048Z,1.20
2019-04-25T01:03:48.022Z,1.40
2019-04-25T01:04:47.998Z,1.50
2019-04-25T01:05:47.973Z,1.50
2019-04-25T01:06:47.948Z,1.30
2019-04-25T01:07:47.923Z,1.40
2019-04-25T01:08:47.901Z,1.40
2019-04-25T01:09:47.906Z,1.50
2019-04-25T01:10:47.997Z,1.40
2019-04-25T01:11:47.975Z,1.40
2019-04-25T01:12:48.202Z,1.40
2019-04-25T01:13:48.250Z,1.40
2019-04-25T01:14:48.403Z,1.40
2019-04-25T01:15:48.490Z,1.50
2019-04-25T01:16:48.581Z,1.60
2019-04-25T01:17:47.675Z,1.60
2019-04-25T01:18:47.652Z,1.30
2019-04-25T01:19:47.624Z,1.40
2019-04-25T01:20:47.600Z,1.60
2019-04-25T01:21:47.574Z,1.30
2019-04-25T01:22:47.549Z,1.50
2019-04-25T01:23:47.525Z,1.40
2019-04-25T01:24:47.500Z,1.40
2019-04-25T01:25:47.863Z,1.50
2019-04-25T01:26:47.553Z,1.70
2019-04-25T01:27:47.693Z,1.60
2019-04-25T01:28:47.669Z,1.60
2019-04-25T01:29:47.833Z,1.50
2019-04-25T01:30:47.891Z,1.40
2019-04-25T01:31:47.995Z,1.40
2019-04-25T01:32:48.141Z,1.40
2019-04-25T01:33:48.254Z,1.30
2019-04-25T01:34:47.251Z,1.30
2019-04-25T01:35:47.344Z,1.20
2019-04-25T01:36:47.267Z,1.50
2019-04-25T01:37:47.474Z,1.30
2019-04-25T01:38:47.417Z,1.60
2019-04-25T01:39:47.518Z,1.40
2019-04-25T01:40:48.282Z,1.50
2019-04-25T01:41:47.667Z,1.50
2019-04-25T01:42:47.901Z,1.50
2019-04-25T01:43:48.355Z,1.30
2019-04-25T01:44:47.963Z,1.30
2019-04-25T01:45:48.059Z,1.30
2019-04-25T01:46:48.159Z,1.30
2019-04-25T01:47:48.868Z,1.40
2019-04-25T01:48:46.907Z,1.30
2019-04-25T01:49:49.142Z,1.40
2019-04-25T01:50:46.852Z,1.20
2019-04-25T01:51:46.827Z,1.40
2019-04-25T01:52:46.803Z,1.30
2019-04-25T01:53:46.777Z,1.60
2019-04-25T01:54:46.753Z,1.40
2019-04-25T01:55:56.149Z,1.40
2019-04-25T01:56:46.703Z,1.30
2019-04-25T01:57:46.678Z,1.40
2019-04-25T01:58:46.653Z,1.40
2019-04-25T01:59:46.627Z,1.30
2019-04-25T02:00:46.603Z,1.30
2019-04-25T02:01:46.587Z,1.30
2019-04-25T02:02:46.553Z,1.40
2019-04-25T02:03:46.528Z,1.40
2019-04-25T02:04:46.504Z,1.60
2019-04-25T02:05:46.480Z,1.40
2019-04-25T02:06:46.453Z,1.70
2019-04-25T02:07:46.431Z,1.40
2019-04-25T02:08:46.404Z,1.30
2019-04-25T02:09:46.378Z,1.50
2019-04-25T02:10:46.354Z,1.60
2019-04-25T02:11:46.329Z,1.50
2019-04-25T02:12:46.304Z,1.50
2019-04-25T02:13:46.278Z,1.40
2019-04-25T02:14:46.253Z,1.40
2019-04-25T02:15:46.229Z,1.50
2019-04-25T02:16:46.955Z,1.40
2019-04-25T02:17:46.179Z,1.70
2019-04-25T02:18:46.154Z,1.30
2019-04-25T02:19:46.129Z,1.50
2019-04-25T02:20:46.104Z,1.60
2019-04-25T02:21:46.079Z,1.60
2019-04-25T02:22:46.054Z,1.40
2019-04-25T02:23:46.029Z,1.60
2019-04-25T02:24:46.004Z,1.70
2019-04-25T02:25:45.980Z,1.50
2019-04-25T02:26:45.953Z,1.40
2019-04-25T02:27:45.929Z,1.50
2019-04-25T02:28:45.904Z,1.50
2019-04-25T02:29:45.880Z,1.60
2019-04-25T02:30:45.855Z,1.40
2019-04-25T02:31:45.828Z,1.70
2019-04-25T02:32:45.805Z,1.50
2019-04-25T02:33:45.801Z,1.50
2019-04-25T02:34:45.826Z,1.40
2019-04-25T02:35:46.801Z,1.50
2019-04-25T02:36:47.057Z,1.70
2019-04-25T02:37:45.679Z,1.50
2019-04-25T02:38:45.654Z,1.50
2019-04-25T02:39:45.630Z,1.50
2019-04-25T02:40:45.760Z,1.40
2019-04-25T02:41:45.579Z,1.80
2019-04-25T02:42:45.553Z,1.70
2019-04-25T02:43:45.530Z,1.60
2019-04-25T02:44:45.504Z,1.50
2019-04-25T02:45:45.480Z,1.40
2019-04-25T02:46:45.456Z,1.50
2019-04-25T02:47:46.236Z,1.60
2019-04-25T02:48:45.406Z,1.50
2019-04-25T02:49:45.382Z,1.60
2019-04-25T02:50:46.318Z,1.40
2019-04-25T02:51:45.329Z,1.50
2019-04-25T02:52:45.305Z,1.70
2019-04-25T02:53:45.278Z,1.60
2019-04-25T02:54:45.255Z,1.70
2019-04-25T02:55:45.229Z,1.60
2019-04-25T02:56:46.686Z,1.60
2019-04-25T02:57:45.178Z,1.70
2019-04-25T02:58:45.157Z,1.70
2019-04-25T02:59:45.302Z,1.60
2019-04-25T03:00:54.887Z,1.70
2019-04-25T03:01:45.084Z,1.50
2019-04-25T03:02:45.053Z,1.40
2019-04-25T03:03:45.124Z,1.60
2019-04-25T03:04:45.010Z,1.70
2019-04-25T03:05:47.640Z,1.60
2019-04-25T03:06:45.539Z,1.80
2019-04-25T03:07:44.947Z,1.80
2019-04-25T03:08:45.191Z,1.70
2019-04-25T03:09:45.249Z,1.60
2019-04-25T03:10:44.860Z,1.70
2019-04-25T03:11:47.340Z,1.80
2019-04-25T03:12:44.877Z,1.70
2019-04-25T03:13:44.780Z,1.80
2019-04-25T03:14:44.899Z,1.50
2019-04-25T03:15:44.727Z,1.60
2019-04-25T03:16:45.024Z,1.80
2019-04-25T03:17:44.678Z,1.70
2019-04-25T03:18:44.657Z,1.60
2019-04-25T03:19:44.638Z,1.60
2019-04-25T03:20:45.137Z,1.90
2019-04-25T03:21:45.299Z,1.70
2019-04-25T03:22:44.649Z,1.80
2019-04-25T03:23:46.185Z,1.60
2019-04-25T03:24:45.912Z,1.60
2019-04-25T03:25:44.474Z,1.60
2019-04-25T03:26:44.448Z,1.80
2019-04-25T03:27:44.424Z,1.80
2019-04-25T03:28:44.406Z,1.70
2019-04-25T03:29:45.713Z,1.60
2019-04-25T03:30:45.047Z,1.80
2019-04-25T03:31:45.105Z,1.70
2019-04-25T03:32:45.080Z,1.80
2019-04-25T03:33:45.764Z,1.50
2019-04-25T03:34:44.248Z,1.80
2019-04-25T03:35:44.223Z,1.70
2019-04-25T03:36:44.197Z,1.80
2019-04-25T03:37:44.172Z,1.80
2019-04-25T03:38:44.245Z,1.60
2019-04-25T03:39:44.122Z,1.70
2019-04-25T03:40:44.098Z,1.70
2019-04-25T03:41:45.447Z,1.80
2019-04-25T03:42:44.045Z,1.60
2019-04-25T03:43:44.261Z,1.80
2019-04-25T03:44:43.996Z,1.90
2019-04-25T03:45:45.327Z,1.80
2019-04-25T03:46:43.946Z,1.80
2019-04-25T03:47:43.920Z,1.50
2019-04-25T03:48:44.157Z,1.70
2019-04-25T03:49:43.869Z,1.80
2019-04-25T03:50:44.200Z,1.80
2019-04-25T03:51:43.965Z,2.00
2019-04-25T03:52:43.794Z,1.90
2019-04-25T03:53:43.849Z,1.80
2019-04-25T03:54:43.744Z,1.90
2019-04-25T03:55:44.382Z,1.80
2019-04-25T03:56:53.307Z,1.90
2019-04-25T03:57:44.318Z,1.80
2019-04-25T03:58:44.016Z,1.80
2019-04-25T03:59:43.812Z,1.50
2019-04-25T04:00:44.670Z,1.80
2019-04-25T04:01:43.957Z,1.90
2019-04-25T04:02:44.263Z,1.90
2019-04-25T04:03:44.070Z,2.10
2019-04-25T04:04:43.608Z,1.80
2019-04-25T04:05:44.188Z,1.70
2019-04-25T04:06:44.069Z,1.80
2019-04-25T04:07:43.595Z,2.00
2019-04-25T04:08:44.285Z,1.80
2019-04-25T04:09:43.595Z,1.70
2019-04-25T04:10:43.340Z,1.70
2019-04-25T04:11:43.574Z,1.50
2019-04-25T04:12:44.355Z,1.80
2019-04-25T04:13:44.032Z,1.80
2019-04-25T04:14:43.752Z,1.70
2019-04-25T04:15:43.447Z,1.80
2019-04-25T04:16:44.311Z,1.60
2019-04-25T04:17:43.829Z,1.60
2019-04-25T04:18:44.159Z,1.90
2019-04-25T04:19:43.579Z,1.80
2019-04-25T04:20:43.578Z,1.90
2019-04-25T04:21:43.269Z,2.00
2019-04-25T04:22:43.845Z,1.90
2019-04-25T04:23:43.119Z,1.70
2019-04-25T04:24:44.015Z,2.30
2019-04-25T04:25:43.369Z,2.00
2019-04-25T04:26:43.143Z,1.60
2019-04-25T04:27:43.801Z,1.80
2019-04-25T04:28:43.559Z,1.70
2019-04-25T04:29:43.260Z,1.90
2019-04-25T04:30:43.599Z,1.60
2019-04-25T04:31:43.170Z,1.60
2019-04-25T04:32:44.158Z,1.70
2019-04-25T04:33:43.151Z,1.70
2019-04-25T04:34:43.547Z,1.80
2019-04-25T04:35:44.129Z,1.50
2019-04-25T04:36:43.720Z,1.80
2019-04-25T04:37:43.164Z,1.60
2019-04-25T04:38:44.075Z,1.80
2019-04-25T04:39:43.697Z,1.70
2019-04-25T04:40:44.188Z,1.70
2019-04-25T04:41:43.636Z,1.80
2019-04-25T04:42:43.516Z,1.60
2019-04-25T04:43:44.028Z,2.30
2019-04-25T04:44:43.741Z,1.90
2019-04-25T04:45:44.991Z,2.20
2019-04-25T04:46:43.904Z,1.90
2019-04-25T04:47:43.315Z,1.90
2019-04-25T04:48:43.806Z,1.90
2019-04-25T04:49:43.820Z,1.80
2019-04-25T04:50:43.450Z,1.70
2019-04-25T04:51:42.307Z,2.70
2019-04-25T04:52:43.909Z,2.50
2019-04-25T04:53:43.787Z,2.10
2019-04-25T04:54:43.876Z,2.30
2019-04-25T04:55:43.245Z,2.30
2019-04-25T04:56:43.691Z,2.10
2019-04-25T04:57:43.427Z,2.10
2019-04-25T04:58:43.222Z,1.60
2019-04-25T04:59:43.739Z,1.60
2019-04-25T05:00:43.691Z,1.60
2019-04-25T05:01:43.004Z,2.00
2019-04-25T05:02:43.353Z,2.00
2019-04-25T05:03:42.004Z,2.10
2019-04-25T05:04:43.487Z,1.80
2019-04-25T05:05:41.964Z,1.70
2019-04-25T05:06:43.550Z,1.60
2019-04-25T05:07:41.911Z,1.50
2019-04-25T05:08:43.464Z,1.60
2019-04-25T05:09:43.482Z,1.60
2019-04-25T05:10:43.232Z,1.70
2019-04-25T05:11:41.801Z,1.50
2019-04-25T05:12:41.776Z,1.50
2019-04-25T05:13:41.752Z,1.50
2019-04-25T05:14:41.726Z,1.70
2019-04-25T05:15:43.009Z,1.60
2019-04-25T05:16:43.171Z,1.60
2019-04-25T05:17:46.903Z,1.40
2019-04-25T05:18:41.625Z,1.50
2019-04-25T05:19:41.600Z,1.70
2019-04-25T05:20:41.575Z,1.40
2019-04-25T05:21:41.549Z,1.40
2019-04-25T05:22:41.524Z,1.40
2019-04-25T05:23:41.499Z,1.40
2019-04-25T05:24:41.474Z,1.60
2019-04-25T05:25:41.448Z,1.60
2019-04-25T05:26:41.423Z,1.30
2019-04-25T05:27:57.618Z,1.50
2019-04-25T05:28:41.373Z,1.70
2019-04-25T05:29:41.347Z,2.00
2019-04-25T05:30:41.324Z,1.70
2019-04-25T05:31:41.297Z,1.40
2019-04-25T05:32:41.336Z,1.60
2019-04-25T05:33:41.253Z,1.50
2019-04-25T05:34:41.222Z,1.50
2019-04-25T05:35:41.197Z,1.50
2019-04-25T05:36:41.171Z,1.70
2019-04-25T05:37:41.158Z,1.70
2019-04-25T05:38:41.121Z,1.70
2019-04-25T05:39:41.096Z,1.60
2019-04-25T05:40:41.074Z,1.60
2019-04-25T05:41:41.046Z,1.80
2019-04-25T05:42:41.021Z,1.70
2019-04-25T05:43:40.996Z,1.70
2019-04-25T05:44:41.720Z,1.60
2019-04-25T05:45:40.945Z,1.70
2019-04-25T05:46:40.920Z,1.60
2019-04-25T05:47:40.896Z,1.80
2019-04-25T05:48:40.871Z,1.70
2019-04-25T05:49:40.845Z,1.60
2019-04-25T05:50:40.821Z,1.70
2019-04-25T05:51:40.796Z,1.70
2019-04-25T05:52:40.769Z,1.60
2019-04-25T05:53:40.745Z,1.60
2019-04-25T05:54:40.720Z,1.90
2019-04-25T05:55:44.038Z,1.80
2019-04-25T05:56:40.672Z,1.60
2019-04-25T05:57:47.405Z,1.50
2019-04-25T05:58:40.621Z,1.70
2019-04-25T05:59:40.595Z,1.70
2019-04-25T06:00:40.572Z,1.80
2019-04-25T06:01:43.553Z,1.90
2019-04-25T06:02:40.521Z,2.00
2019-04-25T06:03:40.496Z,1.70
2019-04-25T06:04:40.472Z,1.70
2019-04-25T06:05:40.447Z,2.10
2019-04-25T06:06:40.422Z,1.70
2019-04-25T06:07:44.151Z,1.90
2019-04-25T06:08:40.373Z,1.90
2019-04-25T06:09:40.348Z,1.80
2019-04-25T06:10:40.324Z,1.90
2019-04-25T06:11:40.299Z,1.80
2019-04-25T06:12:40.277Z,2.00
2019-04-25T06:13:40.250Z,1.90
2019-04-25T06:14:40.225Z,2.70
2019-04-25T06:15:40.201Z,2.00
2019-04-25T06:16:40.180Z,2.10
2019-04-25T06:17:40.152Z,2.50
2019-04-25T06:18:40.128Z,2.40
2019-04-25T06:19:40.104Z,2.00
2019-04-25T06:20:40.097Z,2.70
2019-04-25T06:21:40.055Z,2.40
2019-04-25T06:22:40.030Z,2.20
2019-04-25T06:23:40.006Z,2.20
2019-04-25T06:24:39.982Z,2.40
2019-04-25T06:25:40.126Z,2.00
2019-04-25T06:26:40.142Z,2.20
2019-04-25T06:27:39.910Z,2.00
2019-04-25T06:28:49.161Z,1.90
2019-04-25T06:29:39.860Z,2.20
2019-04-25T06:30:39.836Z,2.10
2019-04-25T06:31:39.815Z,1.90
2019-04-25T06:32:39.788Z,2.30
2019-04-25T06:33:39.857Z,2.00
2019-04-25T06:34:39.739Z,1.60
2019-04-25T06:35:39.715Z,2.30
2019-04-25T06:36:39.691Z,2.00
2019-04-25T06:37:39.666Z,1.90
2019-04-25T06:38:39.642Z,2.00
2019-04-25T06:39:39.618Z,2.10
2019-04-25T06:40:39.598Z,2.20
2019-04-25T06:41:39.569Z,2.20
2019-04-25T06:42:39.550Z,2.20
2019-04-25T06:43:39.522Z,1.90
2019-04-25T06:44:39.498Z,2.20
2019-04-25T06:45:39.482Z,2.20
2019-04-25T06:46:39.449Z,2.70
2019-04-25T06:47:39.424Z,1.90
2019-04-25T06:48:39.402Z,2.20
2019-04-25T06:49:39.377Z,2.20
2019-04-25T06:50:39.353Z,2.20
2019-04-25T06:51:39.329Z,2.20
2019-04-25T06:52:39.306Z,2.20
2019-04-25T06:53:39.281Z,2.60
2019-04-25T06:54:39.257Z,2.10
2019-04-25T06:55:40.739Z,2.50
2019-04-25T06:56:39.210Z,2.30
2019-04-25T06:57:39.185Z,3.00
2019-04-25T06:58:39.180Z,2.50
2019-04-25T06:59:41.421Z,3.00
2019-04-25T07:00:42.629Z,2.90
2019-04-25T07:01:44.345Z,2.50
2019-04-25T07:02:39.065Z,2.40
2019-04-25T07:03:39.042Z,2.10
2019-04-25T07:04:39.019Z,2.50
2019-04-25T07:05:40.519Z,2.20
2019-04-25T07:06:38.970Z,2.10
2019-04-25T07:07:41.198Z,2.20
2019-04-25T07:08:38.923Z,2.40
2019-04-25T07:09:38.907Z,2.60
2019-04-25T07:10:38.875Z,2.10
2019-04-25T07:11:38.855Z,1.90
2019-04-25T07:12:38.828Z,1.90
2019-04-25T07:13:39.554Z,2.10
2019-04-25T07:14:38.780Z,2.30
2019-04-25T07:15:38.757Z,2.40
2019-04-25T07:16:38.733Z,2.20
2019-04-25T07:17:38.709Z,2.30
2019-04-25T07:18:38.685Z,2.30
2019-04-25T07:19:38.661Z,2.60
2019-04-25T07:20:38.639Z,2.30
2019-04-25T07:21:38.614Z,2.10
2019-04-25T07:22:38.590Z,2.20
2019-04-25T07:23:38.567Z,1.90
2019-04-25T07:24:40.796Z,2.30
2019-04-25T07:25:38.519Z,2.60
2019-04-25T07:26:39.747Z,2.40
2019-04-25T07:27:38.474Z,2.40
2019-04-25T07:28:38.450Z,2.40
2019-04-25T07:29:38.426Z,2.20
2019-04-25T07:30:50.225Z,2.50
2019-04-25T07:31:38.379Z,2.40
2019-04-25T07:32:38.881Z,2.40
2019-04-25T07:33:38.332Z,2.20
2019-04-25T07:34:38.309Z,2.40
2019-04-25T07:35:38.286Z,2.50
2019-04-25T07:36:38.263Z,2.60
2019-04-25T07:37:41.557Z,2.30
2019-04-25T07:38:38.215Z,2.50
2019-04-25T07:39:38.192Z,2.70
2019-04-25T07:40:38.169Z,2.40
2019-04-25T07:41:38.529Z,2.50
2019-04-25T07:42:38.124Z,2.70
2019-04-25T07:43:38.099Z,2.50
2019-04-25T07:44:49.738Z,2.50
2019-04-25T07:45:38.334Z,2.60
2019-04-25T07:46:40.009Z,2.70
2019-04-25T07:47:38.023Z,2.50
2019-04-25T07:48:38.218Z,3.10
2019-04-25T07:49:38.012Z,2.80
2019-04-25T07:50:37.939Z,2.80
2019-04-25T07:51:37.914Z,2.70
2019-04-25T07:52:37.891Z,2.60
2019-04-25T07:53:37.868Z,2.80
2019-04-25T07:54:38.488Z,2.60
2019-04-25T07:55:38.768Z,2.80
2019-04-25T07:56:37.937Z,2.70
2019-04-25T07:57:38.628Z,2.80
2019-04-25T07:58:48.807Z,2.90
2019-04-25T07:59:37.731Z,2.90
2019-04-25T08:00:37.707Z,3.10
2019-04-25T08:01:39.042Z,2.70
2019-04-25T08:02:37.662Z,3.10
2019-04-25T08:03:37.636Z,3.00
2019-04-25T08:04:38.392Z,2.90
2019-04-25T08:05:37.916Z,3.30
2019-04-25T08:06:37.723Z,3.00
2019-04-25T08:07:37.849Z,2.80
2019-04-25T08:08:38.142Z,2.80
2019-04-25T08:09:38.000Z,2.80
2019-04-25T08:10:38.130Z,3.10
2019-04-25T08:11:38.288Z,2.70
2019-04-25T08:12:37.434Z,2.90
2019-04-25T08:13:37.408Z,2.60
2019-04-25T08:14:37.401Z,2.90
2019-04-25T08:15:38.330Z,2.90
2019-04-25T08:16:37.341Z,2.90
2019-04-25T08:17:39.602Z,2.90
2019-04-25T08:18:37.295Z,2.90
2019-04-25T08:19:37.273Z,3.00
2019-04-25T08:20:37.258Z,3.40
2019-04-25T08:21:37.227Z,2.90
2019-04-25T08:22:50.125Z,2.80
2019-04-25T08:23:38.844Z,2.60
2019-04-25T08:24:37.347Z,2.90
2019-04-25T08:25:39.204Z,3.00
2019-04-25T08:26:37.591Z,2.90
2019-04-25T08:27:37.096Z,2.70
2019-04-25T08:28:49.978Z,3.20
2019-04-25T08:29:39.248Z,3.70
2019-04-25T08:30:38.072Z,3.00
2019-04-25T08:31:37.748Z,2.90
2019-04-25T08:32:37.630Z,3.10
2019-04-25T08:33:37.710Z,3.50
2019-04-25T08:34:37.289Z,3.00
2019-04-25T08:35:36.918Z,3.70
2019-04-25T08:36:38.538Z,3.50
2019-04-25T08:37:37.852Z,3.20
2019-04-25T08:38:36.849Z,3.00
2019-04-25T08:39:38.090Z,3.20
2019-04-25T08:40:37.710Z,3.10
2019-04-25T08:41:37.042Z,2.80
2019-04-25T08:42:37.909Z,2.90
2019-04-25T08:43:39.098Z,2.80
2019-04-25T08:44:36.963Z,3.40
2019-04-25T08:45:37.400Z,3.30
2019-04-25T08:46:38.082Z,3.20
2019-04-25T08:47:37.369Z,3.80
2019-04-25T08:48:37.051Z,3.10
2019-04-25T08:49:36.607Z,3.10
2019-04-25T08:50:39.472Z,3.00
2019-04-25T08:51:36.563Z,3.10
2019-04-25T08:52:36.543Z,3.00
2019-04-25T08:53:36.618Z,3.60
2019-04-25T08:54:40.821Z,3.10
2019-04-25T08:55:37.053Z,3.10
2019-04-25T08:56:36.524Z,3.20
2019-04-25T08:57:36.431Z,3.10
2019-04-25T08:58:36.572Z,3.40
2019-04-25T08:59:43.310Z,3.40
2019-04-25T09:00:36.984Z,3.30
2019-04-25T09:01:37.889Z,3.40
2019-04-25T09:02:37.482Z,3.50
2019-04-25T09:03:36.614Z,3.30
2019-04-25T09:04:36.896Z,2.90
2019-04-25T09:05:37.425Z,2.80
2019-04-25T09:06:37.276Z,2.80
2019-04-25T09:07:37.755Z,2.60
2019-04-25T09:08:38.115Z,2.70
2019-04-25T09:09:37.627Z,2.40
2019-04-25T09:10:38.229Z,2.90
2019-04-25T09:11:37.960Z,2.50
2019-04-25T09:12:36.564Z,3.20
2019-04-25T09:13:38.108Z,2.70
2019-04-25T09:14:36.817Z,2.80
2019-04-25T09:15:36.979Z,2.40
2019-04-25T09:16:36.714Z,2.40
2019-04-25T09:17:37.806Z,2.40
2019-04-25T09:18:36.955Z,2.10
2019-04-25T09:19:37.128Z,2.10
2019-04-25T09:20:39.355Z,1.60
2019-04-25T09:21:36.599Z,1.70
2019-04-25T09:22:37.413Z,1.90
2019-04-25T09:23:36.525Z,1.90
2019-04-25T09:24:36.862Z,3.00
2019-04-25T09:25:36.712Z,2.50
2019-04-25T09:26:36.906Z,2.10
2019-04-25T09:27:38.006Z,1.90
2019-04-25T09:28:38.045Z,1.50
2019-04-25T09:29:36.691Z,1.60
2019-04-25T09:30:36.848Z,1.60
2019-04-25T09:31:37.592Z,1.90
2019-04-25T09:32:35.717Z,1.80
2019-04-25T09:33:36.372Z,1.60
2019-04-25T09:34:35.650Z,1.60
2019-04-25T09:35:36.248Z,1.60
2019-04-25T09:36:35.962Z,1.80
2019-04-25T09:37:36.656Z,1.60
2019-04-25T09:38:36.007Z,2.10
2019-04-25T09:39:35.712Z,2.10
2019-04-25T09:40:36.113Z,2.10
2019-04-25T09:41:36.091Z,1.60
2019-04-25T09:42:35.768Z,1.80
2019-04-25T09:43:35.821Z,2.40
2019-04-25T09:44:37.078Z,2.10
2019-04-25T09:45:36.131Z,1.90
2019-04-25T09:46:36.295Z,1.90
2019-04-25T09:47:35.757Z,1.90
2019-04-25T09:48:36.308Z,1.60
2019-04-25T09:49:35.347Z,1.60
2019-04-25T09:50:35.328Z,1.60
2019-04-25T09:51:36.015Z,1.50
2019-04-25T09:52:36.104Z,1.60
2019-04-25T09:53:38.879Z,2.00
2019-04-25T09:54:36.144Z,1.80
2019-04-25T09:55:36.079Z,1.70
2019-04-25T09:56:36.492Z,1.70
2019-04-25T09:57:36.251Z,1.50
2019-04-25T09:58:36.450Z,1.50
2019-04-25T09:59:36.206Z,1.70
2019-04-25T10:00:36.397Z,1.90
2019-04-25T10:01:36.396Z,1.90
2019-04-25T10:02:35.882Z,2.40
2019-04-25T10:03:36.564Z,2.10
2019-04-25T10:04:35.053Z,1.70
2019-04-25T10:05:35.034Z,1.70
2019-04-25T10:06:35.020Z,2.00
2019-04-25T10:07:34.995Z,1.60
2019-04-25T10:08:34.980Z,1.90
2019-04-25T10:09:34.956Z,1.90
2019-04-25T10:10:34.937Z,1.50
2019-04-25T10:11:34.917Z,1.50
2019-04-25T10:12:34.899Z,1.30
2019-04-25T10:13:34.880Z,1.40
2019-04-25T10:14:35.615Z,1.50
2019-04-25T10:15:34.842Z,1.90
2019-04-25T10:16:35.141Z,1.80
2019-04-25T10:17:34.807Z,1.50
2019-04-25T10:18:34.789Z,1.70
2019-04-25T10:19:34.766Z,1.50
2019-04-25T10:20:34.747Z,1.30
2019-04-25T10:21:34.728Z,1.50
2019-04-25T10:22:34.710Z,1.40
2019-04-25T10:23:34.692Z,1.60
2019-04-25T10:24:34.672Z,1.70
2019-04-25T10:25:34.654Z,1.60
2019-04-25T10:26:34.926Z,1.40
2019-04-25T10:27:34.616Z,1.40
2019-04-25T10:28:34.596Z,1.30
2019-04-25T10:29:42.808Z,1.40
2019-04-25T10:30:34.564Z,1.50
2019-04-25T10:31:34.542Z,1.50
2019-04-25T10:32:34.524Z,1.30
2019-04-25T10:33:34.505Z,1.90
2019-04-25T10:34:34.487Z,1.40
2019-04-25T10:35:46.740Z,1.40
2019-04-25T10:36:34.455Z,1.70
2019-04-25T10:37:35.315Z,1.60
2019-04-25T10:38:35.136Z,1.80
2019-04-25T10:39:34.397Z,1.60
2019-04-25T10:40:34.379Z,1.50
2019-04-25T10:41:35.932Z,1.70
2019-04-25T10:42:34.369Z,1.50
2019-04-25T10:43:34.349Z,1.30
2019-04-25T10:44:34.309Z,1.50
2019-04-25T10:45:34.290Z,1.80
2019-04-25T10:46:35.773Z,1.60
2019-04-25T10:47:35.330Z,1.50
2019-04-25T10:48:34.444Z,1.50
2019-04-25T10:49:34.551Z,1.30
2019-04-25T10:50:34.222Z,1.20
2019-04-25T10:51:34.362Z,1.50
2019-04-25T10:52:34.169Z,1.30
2019-04-25T10:53:34.149Z,1.30
2019-04-25T10:54:35.233Z,1.50
2019-04-25T10:55:34.115Z,1.40
2019-04-25T10:56:34.104Z,1.50
2019-04-25T10:57:34.127Z,1.80
2019-04-25T10:58:35.284Z,2.10
2019-04-25T10:59:34.045Z,1.70
2019-04-25T11:00:34.430Z,1.40
2019-04-25T11:01:34.025Z,1.40
2019-04-25T11:02:34.067Z,1.60
2019-04-25T11:03:33.976Z,1.40
2019-04-25T11:04:33.959Z,1.40
2019-04-25T11:05:34.327Z,1.40
2019-04-25T11:06:33.925Z,1.50
2019-04-25T11:07:34.077Z,1.60
2019-04-25T11:08:34.244Z,1.50
2019-04-25T11:09:34.341Z,1.30
2019-04-25T11:10:34.406Z,1.30
2019-04-25T11:11:34.239Z,1.60
2019-04-25T11:12:33.947Z,1.50
2019-04-25T11:13:35.393Z,1.40
2019-04-25T11:14:34.312Z,1.30
2019-04-25T11:15:34.033Z,1.60
2019-04-25T11:16:33.756Z,1.70
2019-04-25T11:17:33.956Z,1.40
2019-04-25T11:18:34.078Z,1.30
2019-04-25T11:19:34.911Z,1.50
2019-04-25T11:20:33.877Z,1.60
2019-04-25T11:21:33.671Z,1.40
2019-04-25T11:22:34.194Z,1.60
2019-04-25T11:23:33.641Z,1.60
2019-04-25T11:24:34.252Z,1.80
2019-04-25T11:25:34.164Z,1.60
2019-04-25T11:26:34.603Z,1.50
2019-04-25T11:27:34.005Z,1.50
2019-04-25T11:28:33.863Z,1.50
2019-04-25T11:29:34.153Z,1.70
2019-04-25T11:30:33.529Z,1.50
2019-04-25T11:31:33.774Z,1.80
2019-04-25T11:32:33.989Z,1.70
2019-04-25T11:33:33.547Z,1.40
2019-04-25T11:34:33.466Z,1.60
2019-04-25T11:35:34.290Z,1.60
2019-04-25T11:36:34.038Z,1.70
2019-04-25T11:37:34.300Z,1.90
2019-04-25T11:38:33.910Z,1.80
2019-04-25T11:39:33.386Z,1.80
2019-04-25T11:40:34.630Z,1.70
2019-04-25T11:41:34.180Z,1.50
2019-04-25T11:42:33.827Z,1.50
2019-04-25T11:43:33.758Z,1.40
2019-04-25T11:44:34.932Z,1.50
2019-04-25T11:45:33.293Z,1.50
2019-04-25T11:46:33.419Z,1.50
2019-04-25T11:47:33.510Z,1.90
2019-04-25T11:48:34.037Z,1.50
2019-04-25T11:49:34.011Z,1.40
2019-04-25T11:50:33.218Z,1.70
2019-04-25T11:51:34.085Z,1.50
2019-04-25T11:52:33.680Z,1.40
2019-04-25T11:53:33.886Z,1.60
2019-04-25T11:54:33.159Z,1.80
2019-04-25T11:55:33.143Z,1.60
2019-04-25T11:56:34.270Z,2.40
2019-04-25T11:57:33.113Z,3.40
2019-04-25T11:58:33.098Z,2.10
2019-04-25T11:59:34.137Z,1.60
2019-04-25T12:00:33.890Z,1.50
2019-04-25T12:01:33.634Z,1.30
2019-04-25T12:02:34.357Z,1.50
2019-04-25T12:03:33.656Z,1.80
2019-04-25T12:04:33.355Z,1.60
2019-04-25T12:05:34.364Z,1.50
2019-04-25T12:06:33.472Z,1.50
2019-04-25T12:07:34.242Z,1.60
2019-04-25T12:08:33.569Z,1.80
2019-04-25T12:09:33.641Z,1.80
2019-04-25T12:10:34.513Z,1.50
2019-04-25T12:11:34.146Z,1.50
2019-04-25T12:12:33.884Z,1.90
2019-04-25T12:13:34.508Z,1.50
2019-04-25T12:14:34.171Z,1.50
2019-04-25T12:15:33.362Z,1.50
2019-04-25T12:16:32.836Z,1.60
2019-04-25T12:17:32.823Z,1.70
2019-04-25T12:18:33.861Z,1.90
2019-04-25T12:19:37.266Z,1.70
2019-04-25T12:20:34.042Z,1.70
2019-04-25T12:21:35.018Z,1.70
2019-04-25T12:22:34.314Z,1.60
2019-04-25T12:23:33.971Z,1.70
2019-04-25T12:24:33.478Z,1.60
2019-04-25T12:25:34.070Z,1.40
2019-04-25T12:26:33.699Z,1.80
2019-04-25T12:27:32.681Z,1.50
2019-04-25T12:28:33.884Z,1.50
2019-04-25T12:29:33.635Z,1.70
2019-04-25T12:30:38.143Z,1.60
2019-04-25T12:31:34.208Z,2.00
2019-04-25T12:32:35.017Z,2.00
2019-04-25T12:33:32.600Z,2.00
2019-04-25T12:34:33.801Z,1.40
2019-04-25T12:35:33.322Z,1.50
2019-04-25T12:36:34.012Z,1.70
2019-04-25T12:37:33.697Z,1.50
2019-04-25T12:38:35.109Z,1.50
2019-04-25T12:39:34.208Z,1.70
2019-04-25T12:40:34.239Z,2.20
2019-04-25T12:41:32.486Z,1.80
2019-04-25T12:42:34.263Z,1.70
2019-04-25T12:43:33.888Z,1.40
2019-04-25T12:44:32.442Z,1.70
2019-04-25T12:45:34.198Z,1.50
2019-04-25T12:46:34.585Z,1.80
2019-04-25T12:47:34.237Z,1.60
2019-04-25T12:48:35.392Z,1.80
2019-04-25T12:49:32.371Z,1.50
2019-04-25T12:50:33.647Z,1.40
2019-04-25T12:51:32.345Z,1.70
2019-04-25T12:52:33.315Z,1.60
2019-04-25T12:53:33.441Z,5.60
2019-04-25T12:54:33.952Z,2.20
2019-04-25T12:55:34.090Z,1.70
2019-04-25T12:56:33.887Z,1.70
2019-04-25T12:57:32.258Z,1.80
2019-04-25T12:58:33.440Z,1.50
2019-04-25T12:59:32.229Z,1.60
2019-04-25T13:00:32.217Z,1.60
2019-04-25T13:01:33.335Z,1.50
2019-04-25T13:02:34.422Z,1.40
2019-04-25T13:03:33.613Z,1.40
2019-04-25T13:04:33.181Z,1.80
2019-04-25T13:05:32.146Z,1.50
2019-04-25T13:06:33.776Z,1.70
2019-04-25T13:07:32.118Z,1.60
2019-04-25T13:08:32.105Z,1.50
2019-04-25T13:09:32.090Z,1.40
2019-04-25T13:10:33.301Z,1.70
2019-04-25T13:11:33.310Z,1.40
2019-04-25T13:12:33.265Z,1.40
2019-04-25T13:13:32.035Z,1.70
2019-04-25T13:14:32.021Z,1.60
2019-04-25T13:15:33.427Z,1.40
2019-04-25T13:16:31.994Z,1.30
2019-04-25T13:17:33.716Z,1.40
2019-04-25T13:18:31.965Z,1.70